createdAt,value
2023-10-06T00:02:30.057Z,8.73
2023-10-06T00:04:59.350Z,8.73
2023-10-06T00:07:27.761Z,9.18
2023-10-06T00:09:56.703Z,9.45
2023-10-06T00:12:27.632Z,8.65
2023-10-06T00:14:59.396Z,9.25
2023-10-06T00:17:29.711Z,8.33
2023-10-06T00:20:01.239Z,9.05
2023-10-06T00:22:30.457Z,9.27
2023-10-06T00:25:01.225Z,9.95
2023-10-06T00:27:32.282Z,9.40
2023-10-06T00:30:13.027Z,9.23
2023-10-06T00:32:43.534Z,9.07
2023-10-06T00:35:13.070Z,9.45
2023-10-06T00:37:42.696Z,10.17
2023-10-06T00:40:21.142Z,9.50
2023-10-06T00:42:54.562Z,9.47
2023-10-06T00:45:25.777Z,9.67
2023-10-06T00:47:55.361Z,9.68
2023-10-06T00:50:25.389Z,9.93
2023-10-06T00:52:57.139Z,8.77
2023-10-06T00:55:28.005Z,8.70
2023-10-06T00:57:56.273Z,9.13
2023-10-06T01:00:26.727Z,8.87
2023-10-06T01:02:54.942Z,9.32
2023-10-06T01:05:26.840Z,10.27
2023-10-06T01:07:55.909Z,9.60
2023-10-06T01:10:29.554Z,9.70
2023-10-06T01:12:58.602Z,9.20
2023-10-06T01:15:31.119Z,9.67
2023-10-06T01:18:00.660Z,8.83
2023-10-06T01:20:35.334Z,9.60
2023-10-06T01:23:11.820Z,8.63
2023-10-06T01:25:41.014Z,8.93
2023-10-06T01:28:13.892Z,9.43
2023-10-06T01:30:42.301Z,9.63
2023-10-06T01:33:09.947Z,9.68
2023-10-06T01:35:43.929Z,10.57
2023-10-06T01:38:23.546Z,9.73
2023-10-06T01:40:56.015Z,10.03
2023-10-06T01:43:31.403Z,8.40
2023-10-06T01:46:00.958Z,8.93
2023-10-06T01:48:31.582Z,8.77
2023-10-06T01:51:00.019Z,8.37
2023-10-06T01:53:34.594Z,8.73
2023-10-06T01:56:08.044Z,8.87
2023-10-06T01:58:38.835Z,8.27
2023-10-06T02:01:08.524Z,9.20
2023-10-06T02:03:41.785Z,9.27
2023-10-06T02:06:17.301Z,10.13
2023-10-06T02:08:50.888Z,9.57
2023-10-06T02:11:22.230Z,8.90
2023-10-06T02:13:50.443Z,9.13
2023-10-06T02:16:24.456Z,8.70
2023-10-06T02:18:55.260Z,9.50
2023-10-06T02:21:26.304Z,8.23
2023-10-06T02:24:00.994Z,8.97
2023-10-06T02:26:29.236Z,10.17
2023-10-06T02:28:57.949Z,8.37
2023-10-06T02:31:27.838Z,9.23
2023-10-06T02:33:56.596Z,9.47
2023-10-06T02:36:24.912Z,9.20
2023-10-06T02:38:55.215Z,8.67
2023-10-06T02:41:27.575Z,9.80
2023-10-06T02:43:56.857Z,10.40
2023-10-06T02:46:27.126Z,9.87
2023-10-06T02:48:55.704Z,9.67
2023-10-06T02:51:33.733Z,9.43
2023-10-06T02:54:22.613Z,8.97
2023-10-06T02:56:52.165Z,9.03
2023-10-06T02:59:25.163Z,8.67
2023-10-06T03:01:57.145Z,8.57
2023-10-06T03:04:27.999Z,8.60
2023-10-06T03:06:58.176Z,8.63
2023-10-06T03:09:38.358Z,8.73
2023-10-06T03:12:13.605Z,8.90
2023-10-06T03:14:41.906Z,10.27
2023-10-06T03:17:12.111Z,9.23
2023-10-06T03:19:42.203Z,9.67
2023-10-06T03:22:13.839Z,9.40
2023-10-06T03:24:54.714Z,8.83
2023-10-06T03:27:24.932Z,9.60
2023-10-06T03:29:56.325Z,8.80
2023-10-06T03:32:34.150Z,9.23
2023-10-06T03:35:13.215Z,9.47
2023-10-06T03:37:53.145Z,9.23
2023-10-06T03:40:26.685Z,9.90
2023-10-06T03:42:55.132Z,10.20
2023-10-06T03:45:30.447Z,9.03
2023-10-06T03:48:09.905Z,9.60
2023-10-06T03:50:44.128Z,10.13
2023-10-06T03:53:16.462Z,9.33
2023-10-06T03:55:47.784Z,8.97
2023-10-06T03:58:17.895Z,8.97
2023-10-06T04:00:50.947Z,9.47
2023-10-06T04:03:21.636Z,9.00
2023-10-06T04:05:51.441Z,9.87
2023-10-06T04:08:22.685Z,9.37
2023-10-06T04:10:56.222Z,8.27
2023-10-06T04:13:24.679Z,8.37
2023-10-06T04:15:53.987Z,9.47
2023-10-06T04:18:25.013Z,8.63
2023-10-06T04:20:54.948Z,8.40
2023-10-06T04:23:25.227Z,8.70
2023-10-06T04:25:58.093Z,8.20
2023-10-06T04:28:29.720Z,8.40
2023-10-06T04:31:02.484Z,8.67
2023-10-06T04:33:31.215Z,7.80
2023-10-06T04:36:02.389Z,8.93
2023-10-06T04:38:30.981Z,8.20
2023-10-06T04:41:01.153Z,9.77
2023-10-06T04:43:29.451Z,8.53
2023-10-06T04:45:57.914Z,8.70
2023-10-06T04:48:26.219Z,9.17
2023-10-06T04:50:57.176Z,9.13
2023-10-06T04:53:25.509Z,8.53
2023-10-06T04:55:53.927Z,9.07
2023-10-06T04:58:24.357Z,9.07
2023-10-06T05:00:55.144Z,9.03
2023-10-06T05:03:26.103Z,9.77
2023-10-06T05:05:57.128Z,8.67
2023-10-06T05:08:26.139Z,8.67
2023-10-06T05:10:57.247Z,9.53
2023-10-06T05:13:28.063Z,9.93
2023-10-06T05:15:56.582Z,10.57
2023-10-06T05:18:25.768Z,11.93
2023-10-06T05:20:54.626Z,10.37
2023-10-06T05:23:23.342Z,10.47
2023-10-06T05:25:51.705Z,9.47
2023-10-06T05:28:22.040Z,9.73
2023-10-06T05:30:52.149Z,8.73
2023-10-06T05:33:20.855Z,8.97
2023-10-06T05:35:49.669Z,9.13
2023-10-06T05:38:18.236Z,9.40
2023-10-06T05:40:48.089Z,8.90
2023-10-06T05:43:18.388Z,10.30
2023-10-06T05:45:53.758Z,10.10
2023-10-06T05:48:23.968Z,11.00
2023-10-06T05:50:53.859Z,9.23
2023-10-06T05:53:24.483Z,9.47
2023-10-06T05:55:53.803Z,8.95
2023-10-06T05:58:24.868Z,9.25
2023-10-06T06:00:54.015Z,8.23
2023-10-06T06:03:25.220Z,9.10
2023-10-06T06:05:54.729Z,9.20
2023-10-06T06:08:23.422Z,8.30
2023-10-06T06:10:51.987Z,9.20
2023-10-06T06:13:22.924Z,8.65
2023-10-06T06:15:51.847Z,9.82
2023-10-06T06:18:20.115Z,9.90
2023-10-06T06:20:49.859Z,8.90
2023-10-06T06:23:18.462Z,8.98
2023-10-06T06:25:47.092Z,9.85
2023-10-06T06:28:17.861Z,9.40
2023-10-06T06:30:48.605Z,8.75
2023-10-06T06:33:20.379Z,10.55
2023-10-06T06:35:50.425Z,9.15
2023-10-06T06:38:20.128Z,8.50
2023-10-06T06:40:49.373Z,8.48
2023-10-06T06:43:21.445Z,9.23
2023-10-06T06:45:50.034Z,8.13
2023-10-06T06:48:21.125Z,7.50
2023-10-06T06:50:50.899Z,7.38
2023-10-06T06:53:20.115Z,8.05
2023-10-06T06:55:48.671Z,7.75
2023-10-06T06:58:18.173Z,7.70
2023-10-06T07:00:49.419Z,7.05
2023-10-06T07:03:18.155Z,8.50
2023-10-06T07:05:46.546Z,8.02
2023-10-06T07:08:16.783Z,8.48
2023-10-06T07:10:48.502Z,8.57
2023-10-06T07:13:17.255Z,7.63
2023-10-06T07:15:46.284Z,8.07
2023-10-06T07:18:16.079Z,8.25
2023-10-06T07:20:45.600Z,8.48
2023-10-06T07:23:15.341Z,7.88
2023-10-06T07:25:44.425Z,8.07
2023-10-06T07:28:13.641Z,7.72
2023-10-06T07:30:42.203Z,8.77
2023-10-06T07:33:10.910Z,6.88
2023-10-06T07:35:45.139Z,7.50
2023-10-06T07:38:15.258Z,8.43
2023-10-06T07:40:45.280Z,7.40
2023-10-06T07:43:14.627Z,6.95
2023-10-06T07:45:43.099Z,7.45
2023-10-06T07:48:11.828Z,7.63
2023-10-06T07:50:40.024Z,7.40
2023-10-06T07:53:08.757Z,7.18
2023-10-06T07:55:38.315Z,7.05
2023-10-06T07:58:09.623Z,6.78
2023-10-06T08:00:43.410Z,7.38
2023-10-06T08:03:12.336Z,6.93
2023-10-06T08:05:41.881Z,6.05
2023-10-06T08:08:10.838Z,7.00
2023-10-06T08:10:39.423Z,8.02
2023-10-06T08:13:09.328Z,7.15
2023-10-06T08:15:41.938Z,6.60
2023-10-06T08:18:10.347Z,7.25
2023-10-06T08:20:41.498Z,7.65
2023-10-06T08:23:09.963Z,7.07
2023-10-06T08:25:56.882Z,7.20
2023-10-06T08:28:28.392Z,7.10
2023-10-06T08:30:56.728Z,7.43
2023-10-06T08:33:28.922Z,7.68
2023-10-06T08:36:02.568Z,6.47
2023-10-06T08:38:31.889Z,6.28
2023-10-06T08:41:04.528Z,7.03
2023-10-06T08:43:40.162Z,7.53
2023-10-06T08:46:09.878Z,6.80
2023-10-06T08:48:39.918Z,6.85
2023-10-06T08:51:12.407Z,7.43
2023-10-06T08:53:43.338Z,6.82
2023-10-06T08:56:16.720Z,8.18
2023-10-06T08:58:47.266Z,7.88
2023-10-06T09:01:16.288Z,7.97
2023-10-06T09:03:44.761Z,7.55
2023-10-06T09:06:14.425Z,7.88
2023-10-06T09:08:44.021Z,7.10
2023-10-06T09:11:13.273Z,7.47
2023-10-06T09:13:43.451Z,7.78
2023-10-06T09:16:13.654Z,7.40
2023-10-06T09:18:42.703Z,8.95
2023-10-06T09:21:17.377Z,8.00
2023-10-06T09:23:46.260Z,8.20
2023-10-06T09:26:17.312Z,8.40
2023-10-06T09:28:53.445Z,8.70
2023-10-06T09:31:37.137Z,7.25
2023-10-06T09:34:09.448Z,7.80
2023-10-06T09:36:44.126Z,8.95
2023-10-06T09:39:18.971Z,7.47
2023-10-06T09:41:49.384Z,8.80
2023-10-06T09:44:21.076Z,7.60
2023-10-06T09:46:54.762Z,7.43
2023-10-06T09:49:24.320Z,8.13
2023-10-06T09:51:54.179Z,7.32
2023-10-06T09:54:22.997Z,7.88
2023-10-06T09:56:56.784Z,6.85
2023-10-06T09:59:27.773Z,7.18
2023-10-06T10:02:00.381Z,7.85
2023-10-06T10:04:33.037Z,7.70
2023-10-06T10:07:05.410Z,7.75
2023-10-06T10:12:39.118Z,7.40
2023-10-06T10:15:23.256Z,6.85
2023-10-06T10:18:02.534Z,7.30
2023-10-06T10:20:31.266Z,7.55
2023-10-06T10:23:04.424Z,7.07
2023-10-06T10:25:32.783Z,7.72
2023-10-06T10:28:15.419Z,6.65
2023-10-06T10:30:54.995Z,7.32
2023-10-06T10:33:25.757Z,6.65
2023-10-06T10:36:22.139Z,6.35
2023-10-06T10:39:02.659Z,7.00
2023-10-06T10:41:36.854Z,6.63
2023-10-06T10:44:24.879Z,6.90
2023-10-06T10:46:55.626Z,7.63
2023-10-06T10:49:25.593Z,7.00
2023-10-06T10:51:58.689Z,7.60
2023-10-06T10:54:29.751Z,7.15
2023-10-06T10:57:03.655Z,7.70
2023-10-06T11:00:13.488Z,8.50
2023-10-06T11:02:43.717Z,8.90
2023-10-06T11:05:13.672Z,7.95
2023-10-06T11:07:43.562Z,8.57
2023-10-06T11:10:15.308Z,8.55
2023-10-06T11:12:43.673Z,8.70
2023-10-06T11:15:17.737Z,8.35
2023-10-06T11:17:46.998Z,8.57
2023-10-06T11:20:23.340Z,9.55
2023-10-06T11:22:56.859Z,8.60
2023-10-06T11:25:28.899Z,9.38
2023-10-06T11:27:58.215Z,9.18
2023-10-06T11:30:30.445Z,8.32
2023-10-06T11:32:59.352Z,8.77
2023-10-06T11:35:29.292Z,8.80
2023-10-06T11:37:57.916Z,8.48
2023-10-06T11:40:26.902Z,8.30
2023-10-06T11:42:55.795Z,8.88
2023-10-06T11:45:25.590Z,9.32
2023-10-06T11:47:54.855Z,9.18
2023-10-06T11:50:25.990Z,9.02
2023-10-06T11:52:56.669Z,8.75
2023-10-06T11:55:26.316Z,8.82
2023-10-06T11:57:55.564Z,8.73
2023-10-06T12:00:40.072Z,8.00
2023-10-06T12:03:11.686Z,8.40
2023-10-06T12:05:42.905Z,9.07
2023-10-06T12:08:13.826Z,8.45
2023-10-06T12:10:49.987Z,8.43
2023-10-06T12:13:18.658Z,8.25
2023-10-06T12:15:47.472Z,8.48
2023-10-06T12:18:16.571Z,8.57
2023-10-06T12:20:45.068Z,9.13
2023-10-06T12:23:14.793Z,8.73
2023-10-06T12:25:43.004Z,7.35
2023-10-06T12:28:15.265Z,8.73
2023-10-06T12:30:43.731Z,7.97
2023-10-06T12:33:12.875Z,8.45
2023-10-06T12:35:41.312Z,7.88
2023-10-06T12:38:09.962Z,7.97
2023-10-06T12:40:40.404Z,7.45
2023-10-06T12:43:09.408Z,7.95
2023-10-06T12:45:38.092Z,7.72
2023-10-06T12:48:09.407Z,7.82
2023-10-06T12:50:42.398Z,8.10
2023-10-06T12:53:12.699Z,8.18
2023-10-06T12:55:44.423Z,7.78
2023-10-06T12:58:16.333Z,8.50
2023-10-06T13:00:45.642Z,8.05
2023-10-06T13:03:18.169Z,8.73
2023-10-06T13:05:48.040Z,8.60
2023-10-06T13:08:18.700Z,8.73
2023-10-06T13:10:49.112Z,8.90
2023-10-06T13:13:18.578Z,8.27
2023-10-06T13:15:47.932Z,9.02
2023-10-06T13:18:18.781Z,8.70
2023-10-06T13:20:47.954Z,9.18
2023-10-06T13:23:16.726Z,8.02
2023-10-06T13:25:47.334Z,8.18
2023-10-06T13:28:21.901Z,8.23
2023-10-06T13:30:52.998Z,8.25
2023-10-06T13:33:21.889Z,8.02
2023-10-06T13:35:50.375Z,9.00
2023-10-06T13:38:18.904Z,8.18
2023-10-06T13:40:47.741Z,8.63
2023-10-06T13:43:18.904Z,8.43
2023-10-06T13:45:47.317Z,8.35
2023-10-06T13:48:17.543Z,9.13
2023-10-06T13:50:47.210Z,8.50
2023-10-06T13:53:16.571Z,9.00
2023-10-06T13:55:46.151Z,8.15
2023-10-06T13:58:14.898Z,8.77
2023-10-06T14:00:44.589Z,9.48
2023-10-06T14:03:15.253Z,8.68
2023-10-06T14:05:45.522Z,8.73
2023-10-06T14:08:16.059Z,8.77
2023-10-06T14:10:44.320Z,9.05
2023-10-06T14:13:18.063Z,10.82
2023-10-06T14:15:55.924Z,9.32
2023-10-06T14:18:26.633Z,9.82
2023-10-06T14:20:59.030Z,9.15
2023-10-06T14:23:31.529Z,9.90
2023-10-06T14:26:02.397Z,9.05
2023-10-06T14:28:30.909Z,10.10
2023-10-06T14:31:10.414Z,10.07
2023-10-06T14:33:45.745Z,9.23
2023-10-06T14:36:25.948Z,10.38
2023-10-06T14:39:11.590Z,9.82
2023-10-06T14:41:57.413Z,11.32
2023-10-06T14:44:39.596Z,10.95
2023-10-06T14:47:11.595Z,13.63
2023-10-06T14:52:33.692Z,12.68
2023-10-06T14:55:01.939Z,10.93
2023-10-06T14:57:30.127Z,9.07
2023-10-06T14:59:58.998Z,7.28
2023-10-06T15:02:28.705Z,7.75
2023-10-06T15:04:57.165Z,6.53
2023-10-06T15:07:25.366Z,6.80
2023-10-06T15:09:53.636Z,7.55
2023-10-06T15:12:26.683Z,7.00
2023-10-06T15:14:55.442Z,7.50
2023-10-06T15:17:24.148Z,9.10
2023-10-06T15:19:54.299Z,9.35
2023-10-06T15:22:23.662Z,7.00
2023-10-06T15:24:52.061Z,6.40
2023-10-06T15:27:20.424Z,6.22
2023-10-06T15:29:52.312Z,5.38
2023-10-06T15:32:20.744Z,5.25
2023-10-06T15:34:49.064Z,4.97
2023-10-06T15:37:19.096Z,5.13
2023-10-06T15:39:47.680Z,5.10
2023-10-06T15:42:15.875Z,5.32
2023-10-06T15:44:44.118Z,4.88
2023-10-06T15:47:13.501Z,4.53
2023-10-06T15:49:45.070Z,4.32
2023-10-06T15:52:13.327Z,4.32
2023-10-06T15:54:42.860Z,5.35
2023-10-06T15:57:11.143Z,4.85
2023-10-06T15:59:40.286Z,4.57
2023-10-06T16:02:11.176Z,5.38
2023-10-06T16:04:40.586Z,4.80
2023-10-06T16:07:09.879Z,5.32
2023-10-06T16:09:38.014Z,5.32
2023-10-06T16:12:11.261Z,5.40
2023-10-06T16:14:39.723Z,5.28
2023-10-06T16:17:08.038Z,5.47
2023-10-06T16:19:37.833Z,5.72
2023-10-06T16:22:09.070Z,6.55
2023-10-06T16:24:37.617Z,5.50
2023-10-06T16:27:07.227Z,5.32
2023-10-06T16:29:35.723Z,4.40
2023-10-06T16:32:04.193Z,4.80
2023-10-06T16:34:32.607Z,4.55
2023-10-06T16:37:00.942Z,4.30
2023-10-06T16:39:29.211Z,4.50
2023-10-06T16:41:57.474Z,4.82
2023-10-06T16:44:27.113Z,4.18
2023-10-06T16:46:56.526Z,5.10
2023-10-06T16:49:25.354Z,4.90
2023-10-06T16:51:53.789Z,4.65
2023-10-06T16:54:22.765Z,4.13
2023-10-06T16:56:51.094Z,5.10
2023-10-06T16:59:19.858Z,4.82
2023-10-06T17:01:50.743Z,4.38
2023-10-06T17:04:19.698Z,5.28
2023-10-06T17:06:48.085Z,5.82
2023-10-06T17:09:20.219Z,4.88
2023-10-06T17:11:49.892Z,5.93
2023-10-06T17:14:18.481Z,8.82
2023-10-06T17:16:46.838Z,8.85
2023-10-06T17:19:17.577Z,8.32
2023-10-06T17:21:45.861Z,9.35
2023-10-06T17:24:14.497Z,8.85
2023-10-06T17:26:43.967Z,9.75
2023-10-06T17:29:13.178Z,9.73
2023-10-06T17:31:41.815Z,10.68
2023-10-06T17:34:10.099Z,10.40
2023-10-06T17:36:40.629Z,10.02
2023-10-06T17:39:09.111Z,10.32
2023-10-06T17:41:37.617Z,10.65
2023-10-06T17:44:06.813Z,9.77
2023-10-06T17:46:35.103Z,10.80
2023-10-06T17:49:03.558Z,10.25
2023-10-06T17:51:31.866Z,10.43
2023-10-06T17:54:01.420Z,9.98
2023-10-06T17:56:30.065Z,11.40
2023-10-06T17:58:58.871Z,11.15
2023-10-06T18:01:27.612Z,11.23
2023-10-06T18:03:56.051Z,11.70
2023-10-06T18:06:24.431Z,13.00
2023-10-06T18:08:53.242Z,13.23
2023-10-06T18:11:24.755Z,13.27
2023-10-06T18:13:55.514Z,11.82
2023-10-06T18:16:26.390Z,12.77
2023-10-06T18:18:54.889Z,13.15
2023-10-06T18:21:23.415Z,14.20
2023-10-06T18:23:54.946Z,13.27
2023-10-06T18:26:25.339Z,12.48
2023-10-06T18:28:58.028Z,13.00
2023-10-06T18:31:26.996Z,13.15
2023-10-06T18:33:55.358Z,12.98
2023-10-06T18:36:23.656Z,13.00
2023-10-06T18:38:57.349Z,12.60
2023-10-06T18:41:27.666Z,12.40
2023-10-06T18:43:55.992Z,13.43
2023-10-06T18:46:24.957Z,11.35
2023-10-06T18:48:53.650Z,12.23
2023-10-06T18:51:21.953Z,12.27
2023-10-06T18:53:50.132Z,12.57
2023-10-06T18:56:18.308Z,13.02
2023-10-06T18:58:49.745Z,12.65
2023-10-06T19:01:19.698Z,12.65
2023-10-06T19:03:47.901Z,12.35
2023-10-06T19:06:18.795Z,11.05
2023-10-06T19:08:51.396Z,10.50
2023-10-06T19:11:21.012Z,10.65
2023-10-06T19:13:50.983Z,11.10
2023-10-06T19:16:21.287Z,8.98
2023-10-06T19:18:51.738Z,9.07
2023-10-06T19:21:22.167Z,8.30
2023-10-06T19:23:51.598Z,9.27
2023-10-06T19:26:21.093Z,9.75
2023-10-06T19:28:51.068Z,8.10
2023-10-06T19:31:19.888Z,8.80
2023-10-06T19:33:52.079Z,8.75
2023-10-06T19:36:21.686Z,8.48
2023-10-06T19:38:51.985Z,7.55
2023-10-06T19:41:20.545Z,6.68
2023-10-06T19:43:50.302Z,6.60
2023-10-06T19:46:19.460Z,7.22
2023-10-06T19:48:50.132Z,6.65
2023-10-06T19:51:19.467Z,5.90
2023-10-06T19:53:48.128Z,6.57
2023-10-06T19:56:16.459Z,6.28
2023-10-06T19:58:45.870Z,6.35
2023-10-06T20:01:20.737Z,5.57
2023-10-06T20:03:50.450Z,5.07
2023-10-06T20:06:18.739Z,4.82
2023-10-06T20:08:48.034Z,5.93
2023-10-06T20:11:18.632Z,5.40
2023-10-06T20:13:46.940Z,4.20
2023-10-06T20:16:17.721Z,5.20
2023-10-06T20:18:46.627Z,4.13
2023-10-06T20:21:18.535Z,4.03
2023-10-06T20:23:51.301Z,3.95
2023-10-06T20:26:19.512Z,4.45
2023-10-06T20:28:47.813Z,4.20
2023-10-06T20:31:17.658Z,4.72
2023-10-06T20:33:46.762Z,4.10
2023-10-06T20:36:15.899Z,4.30
2023-10-06T20:38:44.222Z,3.95
2023-10-06T20:41:13.402Z,4.30
2023-10-06T20:43:41.709Z,4.22
2023-10-06T20:46:10.202Z,4.53
2023-10-06T20:48:41.008Z,4.00
2023-10-06T20:51:15.836Z,4.43
2023-10-06T20:53:44.358Z,3.83
2023-10-06T20:56:13.033Z,3.00
2023-10-06T20:58:41.918Z,3.30
2023-10-06T21:01:10.997Z,3.92
2023-10-06T21:03:40.710Z,3.70
2023-10-06T21:06:09.108Z,3.25
2023-10-06T21:08:40.577Z,3.25
2023-10-06T21:11:08.829Z,3.83
2023-10-06T21:13:37.797Z,3.05
2023-10-06T21:16:06.531Z,3.45
2023-10-06T21:18:34.781Z,3.80
2023-10-06T21:21:05.754Z,3.67
2023-10-06T21:23:34.112Z,3.55
2023-10-06T21:26:02.443Z,3.75
2023-10-06T21:28:30.611Z,3.80
2023-10-06T21:30:58.879Z,3.35
2023-10-06T21:33:27.156Z,3.53
2023-10-06T21:35:55.360Z,3.70
2023-10-06T21:38:25.066Z,4.25
2023-10-06T21:41:01.538Z,4.75
2023-10-06T21:43:29.843Z,4.53
2023-10-06T21:45:58.167Z,4.60
2023-10-06T21:48:26.539Z,5.28
2023-10-06T21:50:55.942Z,5.38
2023-10-06T21:53:25.625Z,5.43
2023-10-06T21:55:54.160Z,5.05
2023-10-06T21:58:22.499Z,5.60
2023-10-06T22:00:57.156Z,5.43
2023-10-06T22:03:25.837Z,5.55
2023-10-06T22:05:55.647Z,4.70
2023-10-06T22:08:25.677Z,5.05
2023-10-06T22:10:57.343Z,4.43
2023-10-06T22:13:25.875Z,5.25
2023-10-06T22:15:54.124Z,4.95
2023-10-06T22:18:22.911Z,4.57
2023-10-06T22:20:51.197Z,5.28
2023-10-06T22:23:20.526Z,4.13
2023-10-06T22:25:52.415Z,5.53
2023-10-06T22:28:21.556Z,4.90
2023-10-06T22:30:50.333Z,4.93
2023-10-06T22:33:18.966Z,4.45
2023-10-06T22:35:47.109Z,4.18
2023-10-06T22:38:16.075Z,4.18
2023-10-06T22:40:44.349Z,3.45
2023-10-06T22:43:13.897Z,3.88
2023-10-06T22:45:42.107Z,4.85
2023-10-06T22:48:10.671Z,4.57
2023-10-06T22:50:39.260Z,4.32
2023-10-06T22:53:08.556Z,4.50
2023-10-06T22:55:37.652Z,4.88
2023-10-06T22:58:06.968Z,5.47
2023-10-06T23:00:37.709Z,6.18
2023-10-06T23:03:06.621Z,6.25
2023-10-06T23:05:35.265Z,6.78
2023-10-06T23:08:03.437Z,6.97
2023-10-06T23:10:32.138Z,6.70
2023-10-06T23:13:01.733Z,6.72
2023-10-06T23:15:33.169Z,7.88
2023-10-06T23:18:03.021Z,6.82
2023-10-06T23:20:32.335Z,6.88
2023-10-06T23:23:00.912Z,6.85
2023-10-06T23:25:37.960Z,7.63
2023-10-06T23:28:08.301Z,6.53
2023-10-06T23:30:38.216Z,6.47
2023-10-06T23:33:08.493Z,6.80
2023-10-06T23:35:36.719Z,7.28
2023-10-06T23:38:08.191Z,7.00
2023-10-06T23:40:39.743Z,7.63
2023-10-06T23:43:09.916Z,7.53
2023-10-06T23:45:39.217Z,7.18
2023-10-06T23:48:12.707Z,8.60
2023-10-06T23:50:52.641Z,8.27
2023-10-06T23:53:24.278Z,8.38
2023-10-06T23:55:53.966Z,8.23
2023-10-06T23:58:23.632Z,8.55
